sensor_id;sensor_type;location;lat;lon;timestamp;P1;durP1;ratioP1;P2;durP2;ratioP2
8871;SDS011;4472;52.092;9.820;2023-06-19T06:20:10;7.30;;;6.60;;
8871;SDS011;4472;52.092;9.820;2023-06-19T06:22:57;4.93;;;4.53;;
8871;SDS011;4472;52.092;9.820;2023-06-19T06:25:45;5.00;;;4.60;;
8871;SDS011;4472;52.092;9.820;2023-06-19T06:28:32;7.53;;;6.60;;
8871;SDS011;4472;52.092;9.820;2023-06-19T06:31:19;6.67;;;6.07;;
8871;SDS011;4472;52.092;9.820;2023-06-19T06:34:06;7.27;;;6.20;;
8871;SDS011;4472;52.092;9.820;2023-06-19T06:36:55;7.57;;;6.87;;
8871;SDS011;4472;52.092;9.820;2023-06-19T06:39:42;6.53;;;5.90;;
8871;SDS011;4472;52.092;9.820;2023-06-19T06:42:29;6.10;;;5.60;;
8871;SDS011;4472;52.092;9.820;2023-06-19T06:45:16;7.97;;;7.27;;
8871;SDS011;4472;52.092;9.820;2023-06-19T06:48:04;6.70;;;6.10;;
8871;SDS011;4472;52.092;9.820;2023-06-19T06:50:52;6.30;;;5.80;;
8871;SDS011;4472;52.092;9.820;2023-06-19T06:53:45;7.33;;;6.57;;
8871;SDS011;4472;52.092;9.820;2023-06-19T06:56:33;6.60;;;6.10;;
8871;SDS011;4472;52.092;9.820;2023-06-19T06:59:20;6.93;;;6.20;;
8871;SDS011;4472;52.092;9.820;2023-06-19T07:02:08;7.63;;;6.47;;
8871;SDS011;4472;52.092;9.820;2023-06-19T07:04:55;6.20;;;5.70;;
8871;SDS011;4472;52.092;9.820;2023-06-19T07:07:42;7.40;;;6.70;;
8871;SDS011;4472;52.092;9.820;2023-06-19T07:10:31;7.13;;;6.40;;
8871;SDS011;4472;52.092;9.820;2023-06-19T07:13:18;5.40;;;4.90;;
8871;SDS011;4472;52.092;9.820;2023-06-19T07:16:05;6.63;;;5.80;;
8871;SDS011;4472;52.092;9.820;2023-06-19T07:18:52;7.03;;;6.33;;
8871;SDS011;4472;52.092;9.820;2023-06-19T07:21:40;7.30;;;6.57;;
8871;SDS011;4472;52.092;9.820;2023-06-19T07:24:27;6.90;;;6.30;;
8871;SDS011;4472;52.092;9.820;2023-06-19T07:27:16;6.90;;;6.20;;
8871;SDS011;4472;52.092;9.820;2023-06-19T07:30:03;8.20;;;7.07;;
8871;SDS011;4472;52.092;9.820;2023-06-19T07:32:52;9.50;;;6.73;;
8871;SDS011;4472;52.092;9.820;2023-06-19T07:35:39;8.00;;;6.27;;
8871;SDS011;4472;52.092;9.820;2023-06-19T07:38:26;7.57;;;6.73;;
8871;SDS011;4472;52.092;9.820;2023-06-19T07:41:13;7.37;;;6.40;;
8871;SDS011;4472;52.092;9.820;2023-06-19T07:44:02;7.20;;;6.57;;
8871;SDS011;4472;52.092;9.820;2023-06-19T07:46:49;8.13;;;6.47;;
8871;SDS011;4472;52.092;9.820;2023-06-19T07:49:36;9.03;;;6.23;;
8871;SDS011;4472;52.092;9.820;2023-06-19T07:52:23;7.67;;;6.87;;
8871;SDS011;4472;52.092;9.820;2023-06-19T07:55:11;7.67;;;6.97;;
8871;SDS011;4472;52.092;9.820;2023-06-19T07:57:58;7.53;;;6.77;;
8871;SDS011;4472;52.092;9.820;2023-06-19T08:00:46;7.17;;;6.47;;
8871;SDS011;4472;52.092;9.820;2023-06-19T08:03:33;7.13;;;6.47;;
8871;SDS011;4472;52.092;9.820;2023-06-19T08:06:20;6.93;;;6.27;;
8871;SDS011;4472;52.092;9.820;2023-06-19T08:09:08;8.63;;;6.57;;
8871;SDS011;4472;52.092;9.820;2023-06-19T08:11:55;7.00;;;6.30;;
8871;SDS011;4472;52.092;9.820;2023-06-19T08:14:42;7.93;;;6.30;;
8871;SDS011;4472;52.092;9.820;2023-06-19T08:17:30;8.97;;;6.70;;
8871;SDS011;4472;52.092;9.820;2023-06-19T08:20:18;6.70;;;6.10;;
8871;SDS011;4472;52.092;9.820;2023-06-19T08:23:06;6.93;;;6.33;;
8871;SDS011;4472;52.092;9.820;2023-06-19T08:25:53;7.23;;;6.57;;
8871;SDS011;4472;52.092;9.820;2023-06-19T08:28:40;7.07;;;6.47;;
8871;SDS011;4472;52.092;9.820;2023-06-19T08:31:27;6.97;;;6.28;;
8871;SDS011;4472;52.092;9.820;2023-06-19T08:34:16;7.20;;;6.50;;
8871;SDS011;4472;52.092;9.820;2023-06-19T08:37:04;6.70;;;6.10;;
8871;SDS011;4472;52.092;9.820;2023-06-19T08:39:51;8.23;;;6.13;;
8871;SDS011;4472;52.092;9.820;2023-06-19T08:42:39;7.27;;;6.67;;
8871;SDS011;4472;52.092;9.820;2023-06-19T08:45:28;7.67;;;6.00;;
8871;SDS011;4472;52.092;9.820;2023-06-19T08:48:16;8.43;;;5.83;;
8871;SDS011;4472;52.092;9.820;2023-06-19T08:51:04;5.97;;;5.43;;
8871;SDS011;4472;52.092;9.820;2023-06-19T08:53:54;6.07;;;5.63;;
8871;SDS011;4472;52.092;9.820;2023-06-19T08:56:42;5.83;;;5.37;;
8871;SDS011;4472;52.092;9.820;2023-06-19T08:59:29;6.07;;;5.57;;
8871;SDS011;4472;52.092;9.820;2023-06-19T09:02:17;6.93;;;5.47;;
8871;SDS011;4472;52.092;9.820;2023-06-19T09:05:13;6.60;;;5.57;;
8871;SDS011;4472;52.092;9.820;2023-06-19T09:08:04;6.20;;;5.60;;
8871;SDS011;4472;52.092;9.820;2023-06-19T09:10:55;5.82;;;5.32;;
8871;SDS011;4472;52.092;9.820;2023-06-19T09:13:43;5.93;;;5.40;;
8871;SDS011;4472;52.092;9.820;2023-06-19T09:16:35;8.23;;;6.20;;
8871;SDS011;4472;52.092;9.820;2023-06-19T09:19:24;5.63;;;5.20;;
8871;SDS011;4472;52.092;9.820;2023-06-19T09:22:11;5.78;;;5.28;;
8871;SDS011;4472;52.092;9.820;2023-06-19T09:25:01;6.45;;;5.93;;
8871;SDS011;4472;52.092;9.820;2023-06-19T09:27:49;6.55;;;5.60;;
8871;SDS011;4472;52.092;9.820;2023-06-19T09:30:36;5.80;;;5.13;;
8871;SDS011;4472;52.092;9.820;2023-06-19T09:33:24;6.10;;;5.50;;
8871;SDS011;4472;52.092;9.820;2023-06-19T09:36:12;5.95;;;5.53;;
8871;SDS011;4472;52.092;9.820;2023-06-19T09:39:00;6.20;;;5.32;;
8871;SDS011;4472;52.092;9.820;2023-06-19T09:41:50;5.93;;;5.50;;
8871;SDS011;4472;52.092;9.820;2023-06-19T09:44:39;6.47;;;5.40;;
8871;SDS011;4472;52.092;9.820;2023-06-19T09:47:29;6.45;;;5.78;;
8871;SDS011;4472;52.092;9.820;2023-06-19T09:50:18;5.72;;;5.22;;
8871;SDS011;4472;52.092;9.820;2023-06-19T09:53:12;6.05;;;5.50;;
8871;SDS011;4472;52.092;9.820;2023-06-19T09:55:59;6.38;;;5.78;;
8871;SDS011;4472;52.092;9.820;2023-06-19T09:58:48;7.80;;;6.40;;
8871;SDS011;4472;52.092;9.820;2023-06-19T10:01:37;6.50;;;5.90;;
8871;SDS011;4472;52.092;9.820;2023-06-19T10:04:24;7.22;;;6.10;;
8871;SDS011;4472;52.092;9.820;2023-06-19T10:07:15;6.30;;;5.75;;
8871;SDS011;4472;52.092;9.820;2023-06-19T10:10:04;6.85;;;5.93;;
8871;SDS011;4472;52.092;9.820;2023-06-19T10:12:53;6.82;;;6.22;;
8871;SDS011;4472;52.092;9.820;2023-06-19T10:15:43;7.50;;;5.45;;
8871;SDS011;4472;52.092;9.820;2023-06-19T10:18:33;6.65;;;5.72;;
8871;SDS011;4472;52.092;9.820;2023-06-19T10:21:43;5.97;;;5.47;;
8871;SDS011;4472;52.092;9.820;2023-06-19T10:24:31;6.05;;;5.55;;
8871;SDS011;4472;52.092;9.820;2023-06-19T10:27:20;6.03;;;5.53;;
8871;SDS011;4472;52.092;9.820;2023-06-19T10:30:16;6.80;;;6.15;;
8871;SDS011;4472;52.092;9.820;2023-06-19T10:33:05;6.82;;;6.03;;
8871;SDS011;4472;52.092;9.820;2023-06-19T10:35:52;6.55;;;5.93;;
8871;SDS011;4472;52.092;9.820;2023-06-19T10:38:39;6.68;;;6.03;;
8871;SDS011;4472;52.092;9.820;2023-06-19T10:41:26;8.45;;;6.60;;
8871;SDS011;4472;52.092;9.820;2023-06-19T10:44:13;7.13;;;6.43;;
8871;SDS011;4472;52.092;9.820;2023-06-19T10:47:01;6.30;;;5.82;;
8871;SDS011;4472;52.092;9.820;2023-06-19T10:49:49;7.82;;;6.15;;
8871;SDS011;4472;52.092;9.820;2023-06-19T10:52:39;7.53;;;6.32;;
8871;SDS011;4472;52.092;9.820;2023-06-19T10:55:27;6.88;;;5.70;;
8871;SDS011;4472;52.092;9.820;2023-06-19T10:58:15;5.35;;;4.95;;
8871;SDS011;4472;52.092;9.820;2023-06-19T11:01:02;5.70;;;5.20;;
8871;SDS011;4472;52.092;9.820;2023-06-19T11:03:49;5.20;;;4.78;;
8871;SDS011;4472;52.092;9.820;2023-06-19T11:06:39;5.57;;;4.63;;
8871;SDS011;4472;52.092;9.820;2023-06-19T11:09:27;5.78;;;4.97;;
8871;SDS011;4472;52.092;9.820;2023-06-19T11:12:20;5.30;;;4.88;;
8871;SDS011;4472;52.092;9.820;2023-06-19T11:15:08;4.75;;;4.38;;
8871;SDS011;4472;52.092;9.820;2023-06-19T11:17:56;4.80;;;4.32;;
8871;SDS011;4472;52.092;9.820;2023-06-19T11:20:44;6.10;;;4.90;;
8871;SDS011;4472;52.092;9.820;2023-06-19T11:23:34;6.13;;;4.55;;
8871;SDS011;4472;52.092;9.820;2023-06-19T11:26:21;4.38;;;4.07;;
8871;SDS011;4472;52.092;9.820;2023-06-19T11:29:15;4.32;;;3.92;;
8871;SDS011;4472;52.092;9.820;2023-06-19T11:32:04;4.50;;;4.15;;
8871;SDS011;4472;52.092;9.820;2023-06-19T11:34:53;5.18;;;4.20;;
8871;SDS011;4472;52.092;9.820;2023-06-19T11:37:40;4.78;;;4.35;;
8871;SDS011;4472;52.092;9.820;2023-06-19T11:40:39;6.07;;;4.70;;
8871;SDS011;4472;52.092;9.820;2023-06-19T11:43:27;4.72;;;4.32;;
8871;SDS011;4472;52.092;9.820;2023-06-19T11:46:16;5.90;;;4.40;;
8871;SDS011;4472;52.092;9.820;2023-06-19T11:49:08;5.18;;;4.72;;
8871;SDS011;4472;52.092;9.820;2023-06-19T11:51:56;4.93;;;4.50;;
8871;SDS011;4472;52.092;9.820;2023-06-19T11:54:43;5.03;;;4.63;;
8871;SDS011;4472;52.092;9.820;2023-06-19T11:57:31;5.30;;;4.90;;
8871;SDS011;4472;52.092;9.820;2023-06-19T12:00:19;6.65;;;5.20;;
8871;SDS011;4472;52.092;9.820;2023-06-19T12:03:06;5.65;;;5.10;;
8871;SDS011;4472;52.092;9.820;2023-06-19T12:05:54;5.65;;;5.15;;
8871;SDS011;4472;52.092;9.820;2023-06-19T12:08:42;5.28;;;4.80;;
8871;SDS011;4472;52.092;9.820;2023-06-19T12:11:29;5.18;;;4.72;;
8871;SDS011;4472;52.092;9.820;2023-06-19T12:14:17;5.18;;;4.78;;
8871;SDS011;4472;52.092;9.820;2023-06-19T12:17:05;7.43;;;4.88;;
8871;SDS011;4472;52.092;9.820;2023-06-19T12:19:52;7.80;;;4.78;;
8871;SDS011;4472;52.092;9.820;2023-06-19T12:22:39;6.25;;;4.75;;
8871;SDS011;4472;52.092;9.820;2023-06-19T12:25:27;5.78;;;4.18;;
8871;SDS011;4472;52.092;9.820;2023-06-19T12:28:15;5.30;;;4.80;;
8871;SDS011;4472;52.092;9.820;2023-06-19T12:31:05;4.05;;;3.72;;
8871;SDS011;4472;52.092;9.820;2023-06-19T12:33:52;3.97;;;3.63;;
8871;SDS011;4472;52.092;9.820;2023-06-19T12:36:39;4.03;;;3.63;;
8871;SDS011;4472;52.092;9.820;2023-06-19T12:39:27;4.65;;;4.00;;
8871;SDS011;4472;52.092;9.820;2023-06-19T12:42:14;4.38;;;3.72;;
8871;SDS011;4472;52.092;9.820;2023-06-19T12:45:01;3.90;;;3.60;;
8871;SDS011;4472;52.092;9.820;2023-06-19T12:47:49;3.97;;;3.67;;
8871;SDS011;4472;52.092;9.820;2023-06-19T12:50:37;4.32;;;3.92;;
8871;SDS011;4472;52.092;9.820;2023-06-19T12:53:24;4.00;;;3.70;;
8871;SDS011;4472;52.092;9.820;2023-06-19T12:56:14;4.22;;;3.42;;
8871;SDS011;4472;52.092;9.820;2023-06-19T12:59:02;3.55;;;3.25;;
8871;SDS011;4472;52.092;9.820;2023-06-19T13:01:49;4.78;;;3.63;;
8871;SDS011;4472;52.092;9.820;2023-06-19T13:04:37;3.67;;;3.47;;
8871;SDS011;4472;52.092;9.820;2023-06-19T13:07:24;4.82;;;3.47;;
8871;SDS011;4472;52.092;9.820;2023-06-19T13:10:11;3.60;;;3.30;;
8871;SDS011;4472;52.092;9.820;2023-06-19T13:12:59;5.97;;;3.47;;
8871;SDS011;4472;52.092;9.820;2023-06-19T13:16:00;4.40;;;2.80;;
8871;SDS011;4472;52.092;9.820;2023-06-19T13:18:50;3.30;;;2.55;;
8871;SDS011;4472;52.092;9.820;2023-06-19T13:21:39;3.00;;;2.70;;
8871;SDS011;4472;52.092;9.820;2023-06-19T13:24:26;3.92;;;2.60;;
8871;SDS011;4472;52.092;9.820;2023-06-19T13:27:13;2.97;;;2.78;;
8871;SDS011;4472;52.092;9.820;2023-06-19T13:30:01;2.88;;;2.67;;
8871;SDS011;4472;52.092;9.820;2023-06-19T13:32:48;3.30;;;2.97;;
8871;SDS011;4472;52.092;9.820;2023-06-19T13:35:36;3.40;;;3.10;;
8871;SDS011;4472;52.092;9.820;2023-06-19T13:38:24;4.78;;;3.00;;
8871;SDS011;4472;52.092;9.820;2023-06-19T13:41:11;3.13;;;2.88;;
8871;SDS011;4472;52.092;9.820;2023-06-19T13:43:58;3.03;;;2.83;;
8871;SDS011;4472;52.092;9.820;2023-06-19T13:46:46;3.53;;;3.22;;
8871;SDS011;4472;52.092;9.820;2023-06-19T13:49:33;3.42;;;3.13;;
8871;SDS011;4472;52.092;9.820;2023-06-19T13:52:20;5.55;;;3.10;;
8871;SDS011;4472;52.092;9.820;2023-06-19T13:55:09;4.55;;;3.22;;
8871;SDS011;4472;52.092;9.820;2023-06-19T13:57:56;4.50;;;3.03;;
8871;SDS011;4472;52.092;9.820;2023-06-19T14:00:43;2.92;;;2.63;;
8871;SDS011;4472;52.092;9.820;2023-06-19T14:03:30;3.65;;;3.13;;
8871;SDS011;4472;52.092;9.820;2023-06-19T14:06:18;3.38;;;3.03;;
8871;SDS011;4472;52.092;9.820;2023-06-19T14:09:05;3.17;;;2.88;;
8871;SDS011;4472;52.092;9.820;2023-06-19T14:11:53;3.22;;;2.92;;
8871;SDS011;4472;52.092;9.820;2023-06-19T14:14:40;3.20;;;3.00;;
8871;SDS011;4472;52.092;9.820;2023-06-19T14:17:27;3.10;;;2.75;;
8871;SDS011;4472;52.092;9.820;2023-06-19T14:20:14;2.92;;;2.70;;
8871;SDS011;4472;52.092;9.820;2023-06-19T14:23:02;3.35;;;2.60;;
8871;SDS011;4472;52.092;9.820;2023-06-19T14:25:49;3.60;;;2.70;;
8871;SDS011;4472;52.092;9.820;2023-06-19T14:28:37;3.97;;;2.80;;
8871;SDS011;4472;52.092;9.820;2023-06-19T14:31:24;3.88;;;2.75;;
8871;SDS011;4472;52.092;9.820;2023-06-19T14:34:12;3.85;;;3.00;;
8871;SDS011;4472;52.092;9.820;2023-06-19T14:36:59;4.22;;;3.00;;
8871;SDS011;4472;52.092;9.820;2023-06-19T14:39:46;2.83;;;2.70;;
8871;SDS011;4472;52.092;9.820;2023-06-19T14:42:33;2.67;;;2.47;;
8871;SDS011;4472;52.092;9.820;2023-06-19T14:45:21;3.75;;;2.67;;
8871;SDS011;4472;52.092;9.820;2023-06-19T14:48:08;3.42;;;2.60;;
8871;SDS011;4472;52.092;9.820;2023-06-19T14:50:56;3.25;;;3.00;;
8871;SDS011;4472;52.092;9.820;2023-06-19T14:53:43;2.80;;;2.50;;
8871;SDS011;4472;52.092;9.820;2023-06-19T14:56:30;2.72;;;2.60;;
8871;SDS011;4472;52.092;9.820;2023-06-19T14:59:17;3.72;;;3.03;;
8871;SDS011;4472;52.092;9.820;2023-06-19T15:02:06;3.55;;;3.22;;
8871;SDS011;4472;52.092;9.820;2023-06-19T15:04:53;3.40;;;3.10;;
8871;SDS011;4472;52.092;9.820;2023-06-19T15:07:40;3.10;;;2.78;;
8871;SDS011;4472;52.092;9.820;2023-06-19T15:10:28;3.05;;;2.50;;
8871;SDS011;4472;52.092;9.820;2023-06-19T15:13:15;3.25;;;2.97;;
8871;SDS011;4472;52.092;9.820;2023-06-19T15:16:02;6.22;;;2.92;;
8871;SDS011;4472;52.092;9.820;2023-06-19T15:18:52;3.17;;;2.97;;
8871;SDS011;4472;52.092;9.820;2023-06-19T15:21:40;4.82;;;3.13;;
8871;SDS011;4472;52.092;9.820;2023-06-19T15:24:27;4.03;;;2.80;;
8871;SDS011;4472;52.092;9.820;2023-06-19T15:27:14;3.55;;;2.83;;
8871;SDS011;4472;52.092;9.820;2023-06-19T15:30:06;3.15;;;2.95;;
8871;SDS011;4472;52.092;9.820;2023-06-19T15:32:54;3.90;;;3.10;;
8871;SDS011;4472;52.092;9.820;2023-06-19T15:35:43;3.33;;;2.88;;
8871;SDS011;4472;52.092;9.820;2023-06-19T15:38:32;3.03;;;2.80;;
8871;SDS011;4472;52.092;9.820;2023-06-19T15:41:20;3.28;;;2.92;;
8871;SDS011;4472;52.092;9.820;2023-06-19T15:44:08;3.65;;;3.00;;
8871;SDS011;4472;52.092;9.820;2023-06-19T15:46:56;3.13;;;2.72;;
8871;SDS011;4472;52.092;9.820;2023-06-19T15:49:43;2.92;;;2.72;;
8871;SDS011;4472;52.092;9.820;2023-06-19T15:52:31;4.78;;;2.80;;
8871;SDS011;4472;52.092;9.820;2023-06-19T15:55:18;4.00;;;3.60;;
8871;SDS011;4472;52.092;9.820;2023-06-19T15:58:07;3.40;;;3.10;;
8871;SDS011;4472;52.092;9.820;2023-06-19T16:00:54;3.00;;;2.80;;
8871;SDS011;4472;52.092;9.820;2023-06-19T16:03:41;3.33;;;3.13;;
8871;SDS011;4472;52.092;9.820;2023-06-19T16:06:28;3.38;;;3.17;;
8871;SDS011;4472;52.092;9.820;2023-06-19T16:09:17;3.60;;;3.30;;
8871;SDS011;4472;52.092;9.820;2023-06-19T16:12:04;3.50;;;3.20;;
8871;SDS011;4472;52.092;9.820;2023-06-19T16:14:52;3.45;;;3.03;;
8871;SDS011;4472;52.092;9.820;2023-06-19T16:17:39;3.90;;;3.60;;
8871;SDS011;4472;52.092;9.820;2023-06-19T16:20:26;4.18;;;3.47;;
8871;SDS011;4472;52.092;9.820;2023-06-19T16:23:13;4.00;;;3.70;;
8871;SDS011;4472;52.092;9.820;2023-06-19T16:26:02;3.60;;;3.30;;
8871;SDS011;4472;52.092;9.820;2023-06-19T16:28:50;3.50;;;3.30;;
8871;SDS011;4472;52.092;9.820;2023-06-19T16:31:37;3.83;;;3.53;;
8871;SDS011;4472;52.092;9.820;2023-06-19T16:34:24;4.70;;;3.85;;
8871;SDS011;4472;52.092;9.820;2023-06-19T16:37:11;3.90;;;3.60;;
8871;SDS011;4472;52.092;9.820;2023-06-19T16:39:58;3.50;;;3.28;;
8871;SDS011;4472;52.092;9.820;2023-06-19T16:42:47;3.83;;;3.58;;
8871;SDS011;4472;52.092;9.820;2023-06-19T16:45:34;3.50;;;3.20;;
8871;SDS011;4472;52.092;9.820;2023-06-19T16:48:21;3.25;;;3.05;;
8871;SDS011;4472;52.092;9.820;2023-06-19T16:51:08;3.28;;;3.08;;
8871;SDS011;4472;52.092;9.820;2023-06-19T16:53:55;2.88;;;2.70;;
8871;SDS011;4472;52.092;9.820;2023-06-19T16:56:42;3.47;;;2.95;;
8871;SDS011;4472;52.092;9.820;2023-06-19T16:59:31;3.30;;;3.00;;
8871;SDS011;4472;52.092;9.820;2023-06-19T17:02:18;2.72;;;2.53;;
8871;SDS011;4472;52.092;9.820;2023-06-19T17:05:06;3.10;;;2.90;;
8871;SDS011;4472;52.092;9.820;2023-06-19T17:07:53;2.85;;;2.65;;
8871;SDS011;4472;52.092;9.820;2023-06-19T17:10:40;3.05;;;2.85;;
8871;SDS011;4472;52.092;9.820;2023-06-19T17:13:28;3.97;;;2.78;;
8871;SDS011;4472;52.092;9.820;2023-06-19T17:16:16;3.45;;;3.00;;
8871;SDS011;4472;52.092;9.820;2023-06-19T17:19:03;3.13;;;2.85;;
8871;SDS011;4472;52.092;9.820;2023-06-19T17:21:50;3.00;;;2.80;;
8871;SDS011;4472;52.092;9.820;2023-06-19T17:24:37;3.15;;;2.85;;
8871;SDS011;4472;52.092;9.820;2023-06-19T17:27:25;3.08;;;2.88;;
8871;SDS011;4472;52.092;9.820;2023-06-19T17:30:12;4.77;;;2.93;;
8871;SDS011;4472;52.092;9.820;2023-06-19T17:33:01;4.57;;;2.78;;
8871;SDS011;4472;52.092;9.820;2023-06-19T17:35:48;3.27;;;2.97;;
8871;SDS011;4472;52.092;9.820;2023-06-19T17:38:36;4.03;;;3.20;;
8871;SDS011;4472;52.092;9.820;2023-06-19T17:41:23;3.37;;;3.13;;
8871;SDS011;4472;52.092;9.820;2023-06-19T17:44:10;3.67;;;3.10;;
8871;SDS011;4472;52.092;9.820;2023-06-19T17:46:57;3.60;;;2.93;;
8871;SDS011;4472;52.092;9.820;2023-06-19T17:49:46;7.07;;;3.10;;
8871;SDS011;4472;52.092;9.820;2023-06-19T17:52:33;3.20;;;3.00;;
8871;SDS011;4472;52.092;9.820;2023-06-19T17:55:21;4.07;;;3.10;;
8871;SDS011;4472;52.092;9.820;2023-06-19T17:58:08;4.10;;;3.07;;
8871;SDS011;4472;52.092;9.820;2023-06-19T18:00:55;3.43;;;3.13;;
8871;SDS011;4472;52.092;9.820;2023-06-19T18:03:42;3.40;;;2.80;;
8871;SDS011;4472;52.092;9.820;2023-06-19T18:06:30;3.20;;;3.00;;
8871;SDS011;4472;52.092;9.820;2023-06-19T18:09:17;3.60;;;2.87;;
8871;SDS011;4472;52.092;9.820;2023-06-19T18:12:05;3.33;;;3.13;;
8871;SDS011;4472;52.092;9.820;2023-06-19T18:14:52;3.33;;;3.03;;
8871;SDS011;4472;52.092;9.820;2023-06-19T18:17:39;7.83;;;3.10;;
8871;SDS011;4472;52.092;9.820;2023-06-19T18:20:26;3.30;;;3.10;;
8871;SDS011;4472;52.092;9.820;2023-06-19T18:23:15;8.03;;;3.20;;
8871;SDS011;4472;52.092;9.820;2023-06-19T18:26:02;3.60;;;3.30;;
8871;SDS011;4472;52.092;9.820;2023-06-19T18:28:49;6.93;;;3.07;;
8871;SDS011;4472;52.092;9.820;2023-06-19T18:31:37;3.53;;;3.23;;
8871;SDS011;4472;52.092;9.820;2023-06-19T18:34:24;3.70;;;3.40;;
8871;SDS011;4472;52.092;9.820;2023-06-19T18:37:11;4.20;;;3.10;;
8871;SDS011;4472;52.092;9.820;2023-06-19T18:39:59;3.23;;;3.03;;
8871;SDS011;4472;52.092;9.820;2023-06-19T18:42:46;3.73;;;3.17;;
8871;SDS011;4472;52.092;9.820;2023-06-19T18:45:34;3.27;;;3.07;;
8871;SDS011;4472;52.092;9.820;2023-06-19T18:48:21;3.20;;;3.00;;
8871;SDS011;4472;52.092;9.820;2023-06-19T18:51:08;3.40;;;3.20;;
8871;SDS011;4472;52.092;9.820;2023-06-19T18:53:55;3.87;;;3.50;;
8871;SDS011;4472;52.092;9.820;2023-06-19T18:56:43;5.93;;;3.50;;
8871;SDS011;4472;52.092;9.820;2023-06-19T18:59:31;4.10;;;3.80;;
8871;SDS011;4472;52.092;9.820;2023-06-19T19:02:18;3.63;;;3.33;;
8871;SDS011;4472;52.092;9.820;2023-06-19T19:05:05;4.33;;;4.00;;
8871;SDS011;4472;52.092;9.820;2023-06-19T19:07:53;3.93;;;3.30;;
8871;SDS011;4472;52.092;9.820;2023-06-19T19:10:40;4.50;;;3.60;;
8871;SDS011;4472;52.092;9.820;2023-06-19T19:13:29;4.27;;;3.97;;
8871;SDS011;4472;52.092;9.820;2023-06-19T19:16:16;4.30;;;4.00;;
8871;SDS011;4472;52.092;9.820;2023-06-19T19:19:03;7.23;;;4.37;;
8871;SDS011;4472;52.092;9.820;2023-06-19T19:21:51;4.43;;;4.13;;
8871;SDS011;4472;52.092;9.820;2023-06-19T19:24:38;4.27;;;3.87;;
8871;SDS011;4472;52.092;9.820;2023-06-19T19:27:25;4.33;;;4.00;;
8871;SDS011;4472;52.092;9.820;2023-06-19T19:30:14;5.73;;;4.30;;
8871;SDS011;4472;52.092;9.820;2023-06-19T19:33:01;4.33;;;4.03;;
8871;SDS011;4472;52.092;9.820;2023-06-19T19:35:58;4.40;;;4.03;;
8871;SDS011;4472;52.092;9.820;2023-06-19T19:38:46;5.03;;;4.63;;
8871;SDS011;4472;52.092;9.820;2023-06-19T19:41:34;4.53;;;4.13;;
8871;SDS011;4472;52.092;9.820;2023-06-19T19:44:21;6.03;;;4.53;;
8871;SDS011;4472;52.092;9.820;2023-06-19T19:47:09;4.97;;;4.57;;
8871;SDS011;4472;52.092;9.820;2023-06-19T19:49:56;5.30;;;4.67;;
8871;SDS011;4472;52.092;9.820;2023-06-19T19:52:44;9.37;;;4.50;;
8871;SDS011;4472;52.092;9.820;2023-06-19T19:55:31;7.67;;;5.07;;
8871;SDS011;4472;52.092;9.820;2023-06-19T19:58:18;11.80;;;5.00;;
8871;SDS011;4472;52.092;9.820;2023-06-19T20:01:07;9.57;;;5.10;;
8871;SDS011;4472;52.092;9.820;2023-06-19T20:03:55;8.97;;;4.93;;
8871;SDS011;4472;52.092;9.820;2023-06-19T20:06:42;7.77;;;5.17;;
8871;SDS011;4472;52.092;9.820;2023-06-19T20:09:30;9.27;;;4.77;;
8871;SDS011;4472;52.092;9.820;2023-06-19T20:12:32;5.23;;;4.60;;
8871;SDS011;4472;52.092;9.820;2023-06-19T20:15:20;5.77;;;5.20;;
8871;SDS011;4472;52.092;9.820;2023-06-19T20:18:07;5.17;;;4.43;;
8871;SDS011;4472;52.092;9.820;2023-06-19T20:20:55;5.20;;;4.80;;
8871;SDS011;4472;52.092;9.820;2023-06-19T20:23:42;5.03;;;4.63;;
8871;SDS011;4472;52.092;9.820;2023-06-19T20:26:30;5.43;;;4.53;;
8871;SDS011;4472;52.092;9.820;2023-06-19T20:29:17;5.37;;;4.87;;
8871;SDS011;4472;52.092;9.820;2023-06-19T20:32:04;5.37;;;4.97;;
8871;SDS011;4472;52.092;9.820;2023-06-19T20:34:52;5.30;;;4.90;;
8871;SDS011;4472;52.092;9.820;2023-06-19T20:37:41;5.50;;;5.10;;
8871;SDS011;4472;52.092;9.820;2023-06-19T20:40:28;5.67;;;5.23;;
8871;SDS011;4472;52.092;9.820;2023-06-19T20:43:15;5.17;;;4.77;;
8871;SDS011;4472;52.092;9.820;2023-06-19T20:46:02;5.60;;;5.10;;
8871;SDS011;4472;52.092;9.820;2023-06-19T20:48:49;5.40;;;5.00;;
8871;SDS011;4472;52.092;9.820;2023-06-19T20:51:36;7.57;;;4.90;;
8871;SDS011;4472;52.092;9.820;2023-06-19T20:54:25;6.93;;;5.63;;
8871;SDS011;4472;52.092;9.820;2023-06-19T20:57:12;5.60;;;5.20;;
8871;SDS011;4472;52.092;9.820;2023-06-19T21:00:00;5.07;;;4.60;;
8871;SDS011;4472;52.092;9.820;2023-06-19T21:02:54;5.43;;;4.67;;
8871;SDS011;4472;52.092;9.820;2023-06-19T21:05:42;5.90;;;5.40;;
8871;SDS011;4472;52.092;9.820;2023-06-19T21:08:29;5.43;;;4.93;;
8871;SDS011;4472;52.092;9.820;2023-06-19T21:11:19;5.20;;;4.70;;
8871;SDS011;4472;52.092;9.820;2023-06-19T21:14:07;5.30;;;4.90;;
8871;SDS011;4472;52.092;9.820;2023-06-19T21:16:54;5.07;;;4.67;;
8871;SDS011;4472;52.092;9.820;2023-06-19T21:19:42;5.47;;;5.03;;
8871;SDS011;4472;52.092;9.820;2023-06-19T21:22:29;5.90;;;5.40;;
8871;SDS011;4472;52.092;9.820;2023-06-19T21:25:16;6.23;;;4.80;;
8871;SDS011;4472;52.092;9.820;2023-06-19T21:28:05;6.03;;;5.53;;
8871;SDS011;4472;52.092;9.820;2023-06-19T21:30:52;6.17;;;5.53;;
8871;SDS011;4472;52.092;9.820;2023-06-19T21:33:39;5.47;;;5.07;;
8871;SDS011;4472;52.092;9.820;2023-06-19T21:36:26;5.50;;;5.10;;
8871;SDS011;4472;52.092;9.820;2023-06-19T21:39:13;6.00;;;5.50;;
8871;SDS011;4472;52.092;9.820;2023-06-19T21:42:00;6.17;;;5.67;;
8871;SDS011;4472;52.092;9.820;2023-06-19T21:44:49;6.13;;;5.50;;
8871;SDS011;4472;52.092;9.820;2023-06-19T21:47:36;6.00;;;5.40;;
8871;SDS011;4472;52.092;9.820;2023-06-19T21:50:24;6.10;;;5.70;;
8871;SDS011;4472;52.092;9.820;2023-06-19T21:53:11;5.80;;;5.33;;
8871;SDS011;4472;52.092;9.820;2023-06-19T21:55:59;6.53;;;6.03;;
8871;SDS011;4472;52.092;9.820;2023-06-19T21:58:47;6.57;;;6.07;;
8871;SDS011;4472;52.092;9.820;2023-06-19T22:01:36;6.50;;;6.00;;
8871;SDS011;4472;52.092;9.820;2023-06-19T22:04:24;6.83;;;6.33;;
8871;SDS011;4472;52.092;9.820;2023-06-19T22:07:12;8.10;;;6.40;;
8871;SDS011;4472;52.092;9.820;2023-06-19T22:10:01;6.83;;;6.33;;
8871;SDS011;4472;52.092;9.820;2023-06-19T22:12:49;7.37;;;6.77;;
8871;SDS011;4472;52.092;9.820;2023-06-19T22:15:36;6.80;;;6.10;;
8871;SDS011;4472;52.092;9.820;2023-06-19T22:18:24;6.83;;;6.30;;
8871;SDS011;4472;52.092;9.820;2023-06-19T22:21:12;6.23;;;5.77;;
8871;SDS011;4472;52.092;9.820;2023-06-19T22:23:59;6.67;;;6.17;;
8871;SDS011;4472;52.092;9.820;2023-06-19T22:26:46;7.17;;;6.67;;
8871;SDS011;4472;52.092;9.820;2023-06-19T22:29:33;6.90;;;6.40;;
8871;SDS011;4472;52.092;9.820;2023-06-19T22:32:20;7.40;;;6.60;;
8871;SDS011;4472;52.092;9.820;2023-06-19T22:35:09;7.17;;;6.57;;
8871;SDS011;4472;52.092;9.820;2023-06-19T22:37:56;7.50;;;6.90;;
8871;SDS011;4472;52.092;9.820;2023-06-19T22:40:43;6.50;;;6.00;;
8871;SDS011;4472;52.092;9.820;2023-06-19T22:43:31;7.70;;;6.90;;
8871;SDS011;4472;52.092;9.820;2023-06-19T22:46:18;7.40;;;6.70;;
8871;SDS011;4472;52.092;9.820;2023-06-19T22:49:05;7.57;;;7.00;;
8871;SDS011;4472;52.092;9.820;2023-06-19T22:51:53;7.33;;;6.77;;
8871;SDS011;4472;52.092;9.820;2023-06-19T22:54:42;6.77;;;6.20;;
8871;SDS011;4472;52.092;9.820;2023-06-19T22:57:29;6.70;;;6.20;;
8871;SDS011;4472;52.092;9.820;2023-06-19T23:00:19;7.13;;;6.53;;
8871;SDS011;4472;52.092;9.820;2023-06-19T23:03:07;7.20;;;6.63;;
8871;SDS011;4472;52.092;9.820;2023-06-19T23:05:54;7.37;;;6.77;;
8871;SDS011;4472;52.092;9.820;2023-06-19T23:08:42;7.83;;;7.13;;
8871;SDS011;4472;52.092;9.820;2023-06-19T23:11:34;7.07;;;6.53;;
8871;SDS011;4472;52.092;9.820;2023-06-19T23:14:21;7.47;;;6.90;;
8871;SDS011;4472;52.092;9.820;2023-06-19T23:17:09;7.27;;;6.67;;
8871;SDS011;4472;52.092;9.820;2023-06-19T23:19:56;7.53;;;6.90;;
8871;SDS011;4472;52.092;9.820;2023-06-19T23:22:43;7.80;;;7.20;;
8871;SDS011;4472;52.092;9.820;2023-06-19T23:25:34;8.37;;;7.60;;
8871;SDS011;4472;52.092;9.820;2023-06-19T23:28:21;8.00;;;7.30;;
8871;SDS011;4472;52.092;9.820;2023-06-19T23:31:09;8.47;;;7.40;;
8871;SDS011;4472;52.092;9.820;2023-06-19T23:33:56;7.87;;;7.27;;
8871;SDS011;4472;52.092;9.820;2023-06-19T23:36:45;7.80;;;7.20;;
8871;SDS011;4472;52.092;9.820;2023-06-19T23:39:32;7.47;;;6.80;;
8871;SDS011;4472;52.092;9.820;2023-06-19T23:42:20;7.90;;;7.10;;